Time;durP1;ratioP1;P1;durP2;ratioP2;P2;SDS_P1;SDS_P2;PMS_P1;PMS_P2;Temp;Humidity;BMP_temperature;BMP_pressure;BME280_temperature;BME280_humidity;BME280_pressure;Samples;Min_cycle;Max_cycle;Signal;HPM_P1;HPM_P2
2022/10/12 00:00:07;;;;;;;7.43;3.87;;;;;;;;;;5088666;28;20218;-81
2022/10/12 00:02:35;;;;;;;9.30;4.13;;;;;;;;;;5088947;28;20187;-82
2022/10/12 00:05:04;;;;;;;11.73;4.57;;;;;;;;;;5089576;28;20194;-81
2022/10/12 00:07:33;;;;;;;7.70;4.03;;;;;;;;;;5090080;28;20209;-81
2022/10/12 00:10:01;;;;;;;8.13;3.90;;;;;;;;;;5089385;28;20222;-81
2022/10/12 00:12:30;;;;;;;6.97;4.03;;;;;;;;;;5088029;28;20202;-81
2022/10/12 00:14:58;;;;;;;7.60;3.80;;;;;;;;;;5086593;28;20209;-81
2022/10/12 00:17:28;;;;;;;10.10;3.63;;;;;;;;;;5087973;28;20686;-81
2022/10/12 00:19:57;;;;;;;8.30;3.80;;;;;;;;;;5087714;28;20226;-81
2022/10/12 00:22:25;;;;;;;8.80;4.00;;;;;;;;;;5090131;28;20191;-82
2022/10/12 00:24:54;;;;;;;8.37;4.03;;;;;;;;;;5090995;28;20206;-81
2022/10/12 00:27:22;;;;;;;8.77;4.67;;;;;;;;;;5091654;28;20236;-81
2022/10/12 00:29:51;;;;;;;4.93;4.33;;;;;;;;;;5089343;28;20229;-81
2022/10/12 00:32:19;;;;;;;9.33;4.70;;;;;;;;;;5089190;28;20202;-81
2022/10/12 00:34:49;;;;;;;9.90;4.73;;;;;;;;;;5090117;28;20230;-81
2022/10/12 00:37:17;;;;;;;9.20;4.63;;;;;;;;;;5089682;28;20217;-81
2022/10/12 00:39:46;;;;;;;9.13;4.90;;;;;;;;;;5088468;28;20734;-82
2022/10/12 00:42:14;;;;;;;8.07;4.17;;;;;;;;;;5088480;28;20586;-81
2022/10/12 00:44:44;;;;;;;7.27;4.53;;;;;;;;;;5089187;28;20194;-81
2022/10/12 00:47:18;;;;;;;7.53;4.90;;;;;;;;;;5090581;28;20182;-81
2022/10/12 00:49:48;;;;;;;11.17;5.00;;;;;;;;;;5088426;28;20217;-82
2022/10/12 00:52:20;;;;;;;7.57;4.83;;;;;;;;;;5091155;28;20206;-81
2022/10/12 00:54:51;;;;;;;7.40;5.00;;;;;;;;;;5089387;28;20210;-81
2022/10/12 00:57:20;;;;;;;9.60;5.30;;;;;;;;;;5087938;28;20194;-81
2022/10/12 00:59:51;;;;;;;11.53;5.53;;;;;;;;;;5088745;28;20222;-81
2022/10/12 01:02:20;;;;;;;9.27;5.00;;;;;;;;;;5091278;28;20186;-81
2022/10/12 01:04:48;;;;;;;8.20;4.50;;;;;;;;;;5107039;28;20650;-81
2022/10/12 01:07:18;;;;;;;7.33;5.07;;;;;;;;;;5105404;28;20204;-81
2022/10/12 01:09:47;;;;;;;7.47;4.30;;;;;;;;;;5105393;28;20576;-81
2022/10/12 01:12:16;;;;;;;8.50;3.80;;;;;;;;;;5107282;28;20212;-81
2022/10/12 01:14:44;;;;;;;8.13;4.17;;;;;;;;;;5107445;28;20221;-81
2022/10/12 01:17:22;;;;;;;7.73;4.13;;;;;;;;;;5106859;28;20213;-81
2022/10/12 01:20:10;;;;;;;9.27;4.83;;;;;;;;;;5107472;28;20228;-81
2022/10/12 01:22:44;;;;;;;7.87;4.43;;;;;;;;;;5109536;28;20198;-81
2022/10/12 01:25:20;;;;;;;5.70;4.30;;;;;;;;;;5108685;28;20182;-81
2022/10/12 01:27:50;;;;;;;8.73;4.80;;;;;;;;;;5110397;28;20197;-81
2022/10/12 01:30:22;;;;;;;9.10;4.73;;;;;;;;;;5109138;28;20251;-81
2022/10/12 01:32:55;;;;;;;10.20;4.40;;;;;;;;;;5109726;28;20186;-81
2022/10/12 01:35:25;;;;;;;8.40;4.10;;;;;;;;;;5109817;28;20206;-81
2022/10/12 01:37:56;;;;;;;8.27;4.50;;;;;;;;;;5110453;28;20201;-80
2022/10/12 01:40:27;;;;;;;9.43;4.50;;;;;;;;;;5111276;28;20225;-81
2022/10/12 01:42:56;;;;;;;6.20;4.27;;;;;;;;;;5111580;28;20190;-81
2022/10/12 01:45:26;;;;;;;9.93;4.53;;;;;;;;;;5110513;28;20205;-81
2022/10/12 01:47:55;;;;;;;8.83;4.20;;;;;;;;;;5112668;28;20189;-81
2022/10/12 01:50:27;;;;;;;8.50;4.30;;;;;;;;;;5114724;28;20232;-80
2022/10/12 01:52:59;;;;;;;7.23;4.40;;;;;;;;;;5112187;28;20193;-81
2022/10/12 01:55:35;;;;;;;10.80;4.17;;;;;;;;;;5112284;28;20212;-81
2022/10/12 01:58:11;;;;;;;5.60;3.67;;;;;;;;;;5112144;28;20186;-81
2022/10/12 02:00:43;;;;;;;10.13;4.00;;;;;;;;;;5111502;28;20594;-81
2022/10/12 02:03:15;;;;;;;5.67;4.00;;;;;;;;;;5110963;28;20208;-81
2022/10/12 02:05:46;;;;;;;5.80;3.90;;;;;;;;;;5110752;28;20196;-81
2022/10/12 02:08:18;;;;;;;6.10;3.87;;;;;;;;;;5110872;28;20184;-81
2022/10/12 02:10:49;;;;;;;5.07;4.10;;;;;;;;;;5110576;28;20224;-81
2022/10/12 02:13:19;;;;;;;7.30;4.30;;;;;;;;;;5109954;28;20188;-81
2022/10/12 02:15:49;;;;;;;5.30;4.10;;;;;;;;;;5108946;28;20220;-81
2022/10/12 02:18:18;;;;;;;5.67;4.23;;;;;;;;;;5108193;28;20220;-81
2022/10/12 02:20:48;;;;;;;6.87;4.30;;;;;;;;;;5108236;28;20301;-81
2022/10/12 02:23:17;;;;;;;5.33;4.23;;;;;;;;;;5109540;28;20203;-81
2022/10/12 02:25:46;;;;;;;9.73;4.50;;;;;;;;;;5109759;28;20204;-81
2022/10/12 02:28:17;;;;;;;5.73;4.20;;;;;;;;;;5108437;28;20211;-81
2022/10/12 02:30:47;;;;;;;7.03;4.60;;;;;;;;;;5109305;28;20228;-81
2022/10/12 02:33:22;;;;;;;7.90;4.27;;;;;;;;;;5102534;28;20200;-81
2022/10/12 02:35:52;;;;;;;7.20;4.23;;;;;;;;;;5088259;28;20545;-81
2022/10/12 02:38:26;;;;;;;8.43;4.50;;;;;;;;;;5087739;28;20188;-80
2022/10/12 02:40:56;;;;;;;9.20;4.27;;;;;;;;;;5085985;28;20185;-81
2022/10/12 02:43:28;;;;;;;5.57;4.20;;;;;;;;;;5084707;28;20189;-81
2022/10/12 02:45:57;;;;;;;7.83;4.20;;;;;;;;;;5087229;28;20218;-81
2022/10/12 02:48:29;;;;;;;7.47;4.37;;;;;;;;;;5086252;28;20205;-81
2022/10/12 02:50:58;;;;;;;7.23;4.10;;;;;;;;;;5086444;28;20190;-81
2022/10/12 02:53:28;;;;;;;8.80;4.83;;;;;;;;;;5086564;28;20206;-81
2022/10/12 02:56:00;;;;;;;6.63;4.70;;;;;;;;;;5086668;28;20227;-81
2022/10/12 02:58:29;;;;;;;7.47;4.83;;;;;;;;;;5094222;28;20619;-81
2022/10/12 03:00:57;;;;;;;10.40;5.00;;;;;;;;;;5107882;28;20204;-81
2022/10/12 03:03:27;;;;;;;7.07;4.60;;;;;;;;;;5108380;28;20231;-81
2022/10/12 03:05:56;;;;;;;7.33;5.17;;;;;;;;;;5107578;28;20201;-81
2022/10/12 03:08:24;;;;;;;9.00;5.07;;;;;;;;;;5107899;28;20208;-81
2022/10/12 03:10:53;;;;;;;8.97;5.40;;;;;;;;;;5107627;28;20235;-81
2022/10/12 03:13:21;;;;;;;9.20;4.90;;;;;;;;;;5106389;28;20218;-81
2022/10/12 03:15:50;;;;;;;5.77;4.53;;;;;;;;;;5106101;28;20254;-80
2022/10/12 03:18:18;;;;;;;11.30;4.83;;;;;;;;;;5105181;28;20214;-81
2022/10/12 03:20:49;;;;;;;9.43;4.60;;;;;;;;;;5105231;28;20238;-81
2022/10/12 03:23:18;;;;;;;8.83;4.80;;;;;;;;;;5106506;28;20197;-81
2022/10/12 03:25:46;;;;;;;7.93;4.80;;;;;;;;;;5106265;28;20194;-81
2022/10/12 03:28:15;;;;;;;6.40;4.50;;;;;;;;;;5105216;28;20231;-81
2022/10/12 03:30:44;;;;;;;8.17;4.80;;;;;;;;;;5103160;28;20241;-81
2022/10/12 03:33:12;;;;;;;9.07;5.13;;;;;;;;;;5102584;28;20201;-81
2022/10/12 03:35:44;;;;;;;11.43;4.77;;;;;;;;;;5103160;28;20222;-81
2022/10/12 03:38:14;;;;;;;12.00;5.10;;;;;;;;;;5103251;28;20187;-81
2022/10/12 03:40:42;;;;;;;8.80;5.40;;;;;;;;;;5102338;28;20582;-81
2022/10/12 03:43:11;;;;;;;9.63;5.20;;;;;;;;;;5102635;28;20664;-81
2022/10/12 03:45:40;;;;;;;8.80;5.40;;;;;;;;;;5104744;28;20198;-81
2022/10/12 03:48:08;;;;;;;6.67;4.47;;;;;;;;;;5104452;28;20203;-81
2022/10/12 03:50:37;;;;;;;8.27;4.30;;;;;;;;;;5103685;28;20230;-81
2022/10/12 03:53:06;;;;;;;4.90;4.40;;;;;;;;;;5104278;28;20274;-81
2022/10/12 03:55:36;;;;;;;6.70;4.97;;;;;;;;;;5100558;28;20226;-81
2022/10/12 03:58:04;;;;;;;10.10;5.27;;;;;;;;;;5079170;28;20237;-81
2022/10/12 04:00:33;;;;;;;8.13;4.90;;;;;;;;;;5077512;28;20259;-81
2022/10/12 04:03:02;;;;;;;10.37;5.43;;;;;;;;;;5078455;28;20664;-81
2022/10/12 04:05:30;;;;;;;7.33;4.83;;;;;;;;;;5078280;28;20203;-81
2022/10/12 04:07:59;;;;;;;6.33;5.10;;;;;;;;;;5077768;28;20657;-80
2022/10/12 04:10:27;;;;;;;6.23;5.07;;;;;;;;;;5077599;28;20688;-81
2022/10/12 04:12:57;;;;;;;6.13;4.80;;;;;;;;;;5077905;28;20656;-81
2022/10/12 04:15:26;;;;;;;6.23;4.60;;;;;;;;;;5078459;28;20265;-81
2022/10/12 04:17:54;;;;;;;5.90;4.70;;;;;;;;;;5077523;28;20241;-81
2022/10/12 04:20:23;;;;;;;8.30;5.00;;;;;;;;;;5078515;28;20289;-81
2022/10/12 04:22:51;;;;;;;7.53;5.03;;;;;;;;;;5079433;28;20192;-81
2022/10/12 04:25:20;;;;;;;10.07;4.80;;;;;;;;;;5078550;28;20199;-81
2022/10/12 04:27:50;;;;;;;7.63;4.97;;;;;;;;;;5077376;28;20305;-81
2022/10/12 04:30:20;;;;;;;5.60;4.40;;;;;;;;;;5077413;28;20242;-81
2022/10/12 04:32:49;;;;;;;7.20;4.97;;;;;;;;;;5077412;28;20206;-81
2022/10/12 04:35:17;;;;;;;7.13;4.80;;;;;;;;;;5077218;28;20220;-81
2022/10/12 04:37:46;;;;;;;9.07;5.40;;;;;;;;;;5076768;28;20261;-81
2022/10/12 04:40:14;;;;;;;7.77;4.80;;;;;;;;;;5077634;28;20222;-81
2022/10/12 04:42:43;;;;;;;8.67;4.80;;;;;;;;;;5077106;28;20285;-81
2022/10/12 04:45:12;;;;;;;7.37;4.70;;;;;;;;;;5077788;28;20595;-81
2022/10/12 04:47:42;;;;;;;10.23;4.90;;;;;;;;;;5077200;28;20238;-82
2022/10/12 04:50:10;;;;;;;6.33;4.40;;;;;;;;;;5076836;28;20245;-81
2022/10/12 04:52:39;;;;;;;7.40;4.63;;;;;;;;;;5077438;28;20233;-80
2022/10/12 04:55:08;;;;;;;6.13;4.30;;;;;;;;;;5078035;28;20203;-81
2022/10/12 04:57:37;;;;;;;8.27;4.70;;;;;;;;;;5079913;28;20241;-81
2022/10/12 05:00:06;;;;;;;7.70;4.70;;;;;;;;;;5077838;28;20218;-81
2022/10/12 05:02:35;;;;;;;13.27;5.37;;;;;;;;;;5077672;28;20217;-81
2022/10/12 05:05:05;;;;;;;8.53;4.67;;;;;;;;;;5077564;28;20263;-81
2022/10/12 05:07:33;;;;;;;5.40;4.70;;;;;;;;;;5077814;28;20190;-81
2022/10/12 05:10:02;;;;;;;5.83;4.67;;;;;;;;;;5077699;28;20219;-81
2022/10/12 05:12:31;;;;;;;6.00;4.60;;;;;;;;;;5078796;28;20203;-81
2022/10/12 05:14:59;;;;;;;7.57;4.10;;;;;;;;;;5078791;28;20628;-81
2022/10/12 05:17:28;;;;;;;9.33;4.37;;;;;;;;;;5079076;28;20616;-81
2022/10/12 05:19:56;;;;;;;5.60;4.30;;;;;;;;;;5078344;28;20297;-80
2022/10/12 05:22:26;;;;;;;5.93;4.47;;;;;;;;;;5078456;28;20187;-80
2022/10/12 05:24:55;;;;;;;7.17;4.20;;;;;;;;;;5079194;28;20233;-81
2022/10/12 05:27:23;;;;;;;6.27;4.13;;;;;;;;;;5079407;28;20236;-81
2022/10/12 05:29:52;;;;;;;5.60;4.40;;;;;;;;;;5078347;28;20223;-80
2022/10/12 05:32:21;;;;;;;6.37;4.83;;;;;;;;;;5079887;28;20198;-81
2022/10/12 05:34:49;;;;;;;5.87;5.00;;;;;;;;;;5078926;28;20238;-81
2022/10/12 05:37:18;;;;;;;8.07;4.13;;;;;;;;;;5079191;28;20263;-81
2022/10/12 05:39:48;;;;;;;5.93;4.00;;;;;;;;;;5082510;28;20220;-81
2022/10/12 05:42:17;;;;;;;6.37;4.30;;;;;;;;;;5084037;28;20187;-81
2022/10/12 05:44:45;;;;;;;8.73;4.90;;;;;;;;;;5083898;28;20209;-81
2022/10/12 05:47:14;;;;;;;7.80;4.20;;;;;;;;;;5082984;28;20210;-81
2022/10/12 05:49:42;;;;;;;8.03;4.57;;;;;;;;;;5082075;28;20585;-81
2022/10/12 05:52:11;;;;;;;5.90;4.33;;;;;;;;;;5081172;28;20202;-81
2022/10/12 05:54:39;;;;;;;4.73;4.20;;;;;;;;;;5083450;28;20312;-81
2022/10/12 05:57:09;;;;;;;7.63;4.47;;;;;;;;;;5086537;28;20215;-81
2022/10/12 05:59:38;;;;;;;6.77;4.10;;;;;;;;;;5085524;28;20220;-81
2022/10/12 06:02:06;;;;;;;10.93;4.33;;;;;;;;;;5083465;28;20214;-81
2022/10/12 06:04:35;;;;;;;7.57;4.40;;;;;;;;;;5082331;28;20206;-81
2022/10/12 06:07:03;;;;;;;6.30;4.10;;;;;;;;;;5084352;28;20204;-81
2022/10/12 06:09:32;;;;;;;7.00;3.90;;;;;;;;;;5083963;28;20234;-81
2022/10/12 06:12:00;;;;;;;6.60;4.17;;;;;;;;;;5088908;28;20202;-81
2022/10/12 06:14:30;;;;;;;6.87;4.10;;;;;;;;;;5103421;28;20264;-81
2022/10/12 06:16:59;;;;;;;5.00;4.20;;;;;;;;;;5086923;28;20214;-81
2022/10/12 06:19:27;;;;;;;5.07;4.23;;;;;;;;;;5081142;28;20222;-81
2022/10/12 06:21:56;;;;;;;5.27;3.87;;;;;;;;;;5081049;28;20244;-80
2022/10/12 06:24:24;;;;;;;7.77;4.20;;;;;;;;;;5083001;28;20207;-81
2022/10/12 06:26:53;;;;;;;7.37;4.20;;;;;;;;;;5098181;28;20198;-81
2022/10/12 06:29:22;;;;;;;5.97;4.27;;;;;;;;;;5100219;28;20319;-81
2022/10/12 06:31:53;;;;;;;8.00;4.80;;;;;;;;;;5081317;28;20208;-80
2022/10/12 06:34:21;;;;;;;9.27;4.77;;;;;;;;;;5081987;28;20204;-81
2022/10/12 06:36:51;;;;;;;8.63;4.70;;;;;;;;;;5084218;28;20238;-81
2022/10/12 06:39:20;;;;;;;5.47;4.30;;;;;;;;;;5084377;28;20285;-81
2022/10/12 06:41:49;;;;;;;7.57;4.90;;;;;;;;;;5099544;28;20198;-81
2022/10/12 06:44:21;;;;;;;5.73;5.10;;;;;;;;;;5102115;28;20674;-81
2022/10/12 06:46:50;;;;;;;11.20;5.23;;;;;;;;;;5087786;28;20183;-81
2022/10/12 06:49:20;;;;;;;7.17;4.50;;;;;;;;;;5086433;28;20305;-81
2022/10/12 06:51:48;;;;;;;7.90;4.93;;;;;;;;;;5085909;28;20260;-81
2022/10/12 06:54:17;;;;;;;9.30;5.63;;;;;;;;;;5083504;28;20234;-81
2022/10/12 06:56:45;;;;;;;8.27;5.30;;;;;;;;;;5083091;28;20273;-81
2022/10/12 06:59:14;;;;;;;9.03;5.40;;;;;;;;;;5081998;28;20308;-81
2022/10/12 07:01:42;;;;;;;5.83;5.13;;;;;;;;;;5084358;28;20204;-81
2022/10/12 07:04:11;;;;;;;9.13;5.33;;;;;;;;;;5087283;28;20210;-81
2022/10/12 07:06:41;;;;;;;7.70;5.77;;;;;;;;;;5086487;28;20258;-80
2022/10/12 07:09:09;;;;;;;7.50;5.30;;;;;;;;;;5085861;28;20230;-80
2022/10/12 07:11:38;;;;;;;8.93;5.30;;;;;;;;;;5087308;28;20646;-81
2022/10/12 07:14:06;;;;;;;8.07;5.43;;;;;;;;;;5088710;28;20228;-81
2022/10/12 07:16:35;;;;;;;9.30;5.97;;;;;;;;;;5089361;28;20233;-81
2022/10/12 07:19:04;;;;;;;9.20;5.83;;;;;;;;;;5085595;28;20232;-81
2022/10/12 07:21:32;;;;;;;9.90;5.70;;;;;;;;;;5089397;28;20217;-81
2022/10/12 07:24:02;;;;;;;9.03;6.47;;;;;;;;;;5101645;28;20205;-81
2022/10/12 07:26:31;;;;;;;9.57;5.87;;;;;;;;;;5108779;28;20204;-81
2022/10/12 07:29:01;;;;;;;9.97;6.07;;;;;;;;;;5106355;28;20239;-81
2022/10/12 07:31:29;;;;;;;10.53;5.67;;;;;;;;;;5105276;28;20187;-81
2022/10/12 07:33:58;;;;;;;12.03;6.10;;;;;;;;;;5087502;28;20194;-81
2022/10/12 07:36:26;;;;;;;11.43;6.77;;;;;;;;;;5093355;28;20210;-82
2022/10/12 07:39:16;;;;;;;11.67;6.27;;;;;;;;;;5094885;28;20254;-81
2022/10/12 07:41:44;;;;;;;10.63;6.03;;;;;;;;;;5091037;28;20263;-81
2022/10/12 07:44:13;;;;;;;7.93;6.43;;;;;;;;;;5091048;28;20206;-81
2022/10/12 07:46:42;;;;;;;9.03;6.20;;;;;;;;;;5099885;28;20210;-80
2022/10/12 07:49:12;;;;;;;8.80;5.90;;;;;;;;;;5092782;28;20246;-81
2022/10/12 07:51:41;;;;;;;9.33;5.67;;;;;;;;;;5092055;28;20202;-81
2022/10/12 07:54:10;;;;;;;8.33;5.93;;;;;;;;;;5095882;28;20233;-82
2022/10/12 07:56:45;;;;;;;11.47;5.37;;;;;;;;;;5097765;28;20199;-82
2022/10/12 07:59:14;;;;;;;6.27;4.87;;;;;;;;;;5098915;28;20212;-82
2022/10/12 08:01:43;;;;;;;9.43;4.80;;;;;;;;;;5091144;28;20206;-82
2022/10/12 08:04:12;;;;;;;10.53;4.73;;;;;;;;;;5099250;28;20188;-81
2022/10/12 08:06:42;;;;;;;8.63;4.13;;;;;;;;;;5095931;28;20220;-81
2022/10/12 08:09:12;;;;;;;11.43;4.00;;;;;;;;;;5099343;28;20309;-80
2022/10/12 08:11:42;;;;;;;8.33;3.93;;;;;;;;;;5100032;28;20186;-79
2022/10/12 08:14:29;;;;;;;9.07;3.60;;;;;;;;;;5096370;28;20244;-80
2022/10/12 08:17:00;;;;;;;7.23;3.70;;;;;;;;;;5111284;28;20229;-79
2022/10/12 08:19:29;;;;;;;8.63;3.70;;;;;;;;;;5120102;28;20228;-81
2022/10/12 08:22:02;;;;;;;7.80;3.30;;;;;;;;;;5120097;28;20219;-79
2022/10/12 08:24:31;;;;;;;9.00;3.57;;;;;;;;;;5120311;28;20178;-79
2022/10/12 08:26:59;;;;;;;8.77;3.60;;;;;;;;;;5120098;28;20212;-79
2022/10/12 08:29:29;;;;;;;8.47;3.27;;;;;;;;;;5119723;28;20213;-81
2022/10/12 08:31:57;;;;;;;9.20;3.33;;;;;;;;;;5099494;28;20198;-82
2022/10/12 08:34:27;;;;;;;10.63;3.07;;;;;;;;;;5099200;28;20186;-80
2022/10/12 08:36:56;;;;;;;6.93;2.80;;;;;;;;;;5099078;28;20171;-82
2022/10/12 08:39:24;;;;;;;6.27;3.00;;;;;;;;;;5097464;28;20194;-81
2022/10/12 08:41:55;;;;;;;7.50;3.23;;;;;;;;;;5098434;28;20183;-82
2022/10/12 08:44:39;;;;;;;9.70;3.67;;;;;;;;;;5095534;28;20217;-81
2022/10/12 08:47:12;;;;;;;9.00;3.33;;;;;;;;;;5097478;28;20191;-81
2022/10/12 08:49:43;;;;;;;8.03;3.00;;;;;;;;;;5096710;28;20218;-82
2022/10/12 08:52:23;;;;;;;7.83;3.03;;;;;;;;;;5095793;28;20175;-81
2022/10/12 08:54:52;;;;;;;11.00;3.30;;;;;;;;;;5093994;28;20183;-82
2022/10/12 08:57:20;;;;;;;10.10;3.23;;;;;;;;;;5089696;28;20222;-82
2022/10/12 08:59:49;;;;;;;11.83;3.30;;;;;;;;;;5090112;28;20242;-82
2022/10/12 09:02:35;;;;;;;7.87;2.90;;;;;;;;;;5088489;28;20252;-82
2022/10/12 09:05:08;;;;;;;5.93;2.60;;;;;;;;;;5087806;28;20187;-82
2022/10/12 09:07:40;;;;;;;8.93;2.63;;;;;;;;;;5085742;28;20667;-82
2022/10/12 09:10:18;;;;;;;8.63;3.00;;;;;;;;;;5086456;28;20226;-82
2022/10/12 09:12:48;;;;;;;8.80;3.00;;;;;;;;;;5087655;28;20178;-82
2022/10/12 09:15:19;;;;;;;8.97;2.77;;;;;;;;;;5086185;28;20199;-82
2022/10/12 09:17:52;;;;;;;7.33;3.00;;;;;;;;;;5083738;28;20229;-82
2022/10/12 09:20:23;;;;;;;6.33;2.70;;;;;;;;;;5085468;28;20655;-82
2022/10/12 09:22:55;;;;;;;6.50;2.60;;;;;;;;;;5086866;28;20230;-82
2022/10/12 09:25:24;;;;;;;8.67;2.97;;;;;;;;;;5086717;28;20194;-82
2022/10/12 09:27:53;;;;;;;9.23;3.10;;;;;;;;;;5085616;28;20203;-82
2022/10/12 09:30:22;;;;;;;10.20;2.63;;;;;;;;;;5081590;28;20245;-81
2022/10/12 09:33:03;;;;;;;7.17;2.80;;;;;;;;;;5076687;28;20206;-82
2022/10/12 09:35:33;;;;;;;7.30;2.37;;;;;;;;;;5076589;28;20191;-82
2022/10/12 09:38:02;;;;;;;7.77;2.27;;;;;;;;;;5075018;28;20272;-82
2022/10/12 09:40:31;;;;;;;6.47;2.77;;;;;;;;;;5076630;28;20276;-82
2022/10/12 09:43:01;;;;;;;7.30;2.50;;;;;;;;;;5079952;28;20716;-82
2022/10/12 09:45:31;;;;;;;7.03;2.40;;;;;;;;;;5074197;28;20210;-81
2022/10/12 09:48:12;;;;;;;6.73;2.20;;;;;;;;;;5074443;28;20237;-82
2022/10/12 09:50:59;;;;;;;8.40;2.20;;;;;;;;;;5076870;28;20230;-82
2022/10/12 09:53:35;;;;;;;7.57;2.30;;;;;;;;;;5076023;28;20243;-83
2022/10/12 09:56:05;;;;;;;7.97;1.92;;;;;;;;;;5072825;28;20230;-81
2022/10/12 09:58:38;;;;;;;6.78;2.15;;;;;;;;;;5071217;28;20298;-82
2022/10/12 10:01:20;;;;;;;5.40;2.00;;;;;;;;;;5071176;28;20182;-81
2022/10/12 10:03:50;;;;;;;8.38;2.45;;;;;;;;;;5072894;28;20313;-82
2022/10/12 10:06:27;;;;;;;6.13;2.00;;;;;;;;;;5073040;28;20187;-82
2022/10/12 10:08:57;;;;;;;8.57;2.20;;;;;;;;;;5075821;28;20271;-83
2022/10/12 10:11:29;;;;;;;6.17;2.00;;;;;;;;;;5077156;28;20219;-82
2022/10/12 10:13:59;;;;;;;7.23;2.10;;;;;;;;;;5077376;28;20305;-82
2022/10/12 10:16:28;;;;;;;5.07;2.07;;;;;;;;;;5077105;28;20297;-82
2022/10/12 10:18:58;;;;;;;5.68;2.20;;;;;;;;;;5076588;28;20230;-81
2022/10/12 10:21:28;;;;;;;5.45;1.92;;;;;;;;;;5076464;28;20214;-81
2022/10/12 10:23:58;;;;;;;4.93;1.90;;;;;;;;;;5076488;28;20233;-81
2022/10/12 10:26:27;;;;;;;7.23;2.27;;;;;;;;;;5076833;28;20304;-82
2022/10/12 10:28:58;;;;;;;6.10;2.10;;;;;;;;;;5076727;28;20227;-82
2022/10/12 10:31:28;;;;;;;4.67;1.90;;;;;;;;;;5076667;28;20190;-81
2022/10/12 10:34:05;;;;;;;6.30;1.80;;;;;;;;;;5076649;28;20240;-82
2022/10/12 10:36:36;;;;;;;4.13;2.00;;;;;;;;;;5076767;28;20225;-82
2022/10/12 10:39:06;;;;;;;4.67;2.07;;;;;;;;;;5076770;28;20228;-82
2022/10/12 10:41:38;;;;;;;6.47;1.90;;;;;;;;;;5076428;28;20233;-82
2022/10/12 10:44:13;;;;;;;6.93;2.33;;;;;;;;;;5076526;28;20183;-81
2022/10/12 10:46:48;;;;;;;5.03;1.93;;;;;;;;;;5076359;28;20186;-81
2022/10/12 10:49:24;;;;;;;5.17;1.93;;;;;;;;;;5076255;28;20726;-82
2022/10/12 10:51:55;;;;;;;5.10;2.13;;;;;;;;;;5076219;28;20229;-82
2022/10/12 10:54:28;;;;;;;6.70;2.20;;;;;;;;;;5076303;28;20659;-81
2022/10/12 10:57:00;;;;;;;7.25;2.50;;;;;;;;;;5076087;28;20260;-81
2022/10/12 10:59:41;;;;;;;7.83;2.30;;;;;;;;;;5076100;28;20278;-81
2022/10/12 11:02:15;;;;;;;8.00;2.20;;;;;;;;;;5075885;28;20226;-82
2022/10/12 11:04:46;;;;;;;5.17;1.90;;;;;;;;;;5076093;28;20217;-81
2022/10/12 11:07:18;;;;;;;6.30;2.00;;;;;;;;;;5076012;28;20229;-82
2022/10/12 11:09:48;;;;;;;8.03;2.20;;;;;;;;;;5076003;28;20313;-82
2022/10/12 11:12:18;;;;;;;6.13;1.98;;;;;;;;;;5075731;28;20244;-82
2022/10/12 11:14:48;;;;;;;5.13;1.80;;;;;;;;;;5075919;28;20226;-82
2022/10/12 11:17:19;;;;;;;4.45;2.08;;;;;;;;;;5075950;28;20600;-82
2022/10/12 11:19:50;;;;;;;5.60;1.80;;;;;;;;;;5075051;28;20758;-82
2022/10/12 11:22:22;;;;;;;5.10;1.90;;;;;;;;;;5076054;28;20199;-82
2022/10/12 11:24:54;;;;;;;4.25;1.67;;;;;;;;;;5075702;28;20233;-82
2022/10/12 11:27:24;;;;;;;5.07;2.00;;;;;;;;;;5075259;28;20293;-81
2022/10/12 11:29:55;;;;;;;6.20;2.07;;;;;;;;;;5075587;28;20312;-82
2022/10/12 11:32:38;;;;;;;5.93;2.07;;;;;;;;;;5075326;28;20187;-82
2022/10/12 11:35:08;;;;;;;4.67;1.73;;;;;;;;;;5075200;28;20229;-82
2022/10/12 11:37:40;;;;;;;5.93;2.13;;;;;;;;;;5075918;28;20549;-81
2022/10/12 11:40:10;;;;;;;6.13;2.13;;;;;;;;;;5075086;28;20321;-81
2022/10/12 11:42:41;;;;;;;7.03;2.13;;;;;;;;;;5076234;28;20645;-82
2022/10/12 11:45:18;;;;;;;6.90;2.00;;;;;;;;;;5075417;28;20191;-81
2022/10/12 11:47:48;;;;;;;6.87;2.13;;;;;;;;;;5073765;28;20220;-82
2022/10/12 11:50:21;;;;;;;5.63;2.00;;;;;;;;;;5074763;28;20262;-82
2022/10/12 11:52:52;;;;;;;5.30;1.90;;;;;;;;;;5075361;28;20240;-82
2022/10/12 11:55:37;;;;;;;5.03;1.87;;;;;;;;;;5075474;28;20221;-81
2022/10/12 11:58:09;;;;;;;3.87;2.00;;;;;;;;;;5075561;28;20644;-83
2022/10/12 12:00:43;;;;;;;4.00;1.90;;;;;;;;;;5075330;28;20754;-82
2022/10/12 12:03:16;;;;;;;5.20;2.30;;;;;;;;;;5075262;28;20183;-82
2022/10/12 12:05:45;;;;;;;5.47;2.08;;;;;;;;;;5075417;28;20661;-82
2022/10/12 12:08:25;;;;;;;5.07;2.22;;;;;;;;;;5074407;28;20202;-82
2022/10/12 12:11:22;;;;;;;6.80;2.20;;;;;;;;;;5074397;28;20564;-82
2022/10/12 12:14:15;;;;;;;4.20;1.95;;;;;;;;;;5074556;28;20663;-82
2022/10/12 12:16:46;;;;;;;3.70;1.90;;;;;;;;;;5075073;28;20202;-82
2022/10/12 12:19:36;;;;;;;4.63;2.17;;;;;;;;;;5074974;28;20252;-82
2022/10/12 12:22:42;;;;;;;4.88;2.15;;;;;;;;;;5074964;28;20206;-82
2022/10/12 12:25:26;;;;;;;4.45;1.90;;;;;;;;;;5074803;28;20549;-81
2022/10/12 12:28:02;;;;;;;6.07;2.25;;;;;;;;;;5074085;28;20716;-81
2022/10/12 12:30:39;;;;;;;4.50;1.90;;;;;;;;;;5075062;28;20224;-82
2022/10/12 12:33:28;;;;;;;8.02;2.17;;;;;;;;;;5074667;28;20210;-82
2022/10/12 12:35:59;;;;;;;6.00;2.05;;;;;;;;;;5075841;28;20294;-82
2022/10/12 12:38:35;;;;;;;4.88;2.10;;;;;;;;;;5075284;28;20195;-82
2022/10/12 12:41:26;;;;;;;5.50;2.08;;;;;;;;;;5074857;28;20217;-83
2022/10/12 12:44:04;;;;;;;3.28;1.77;;;;;;;;;;5077341;28;20178;-83
2022/10/12 12:47:08;;;;;;;5.35;2.08;;;;;;;;;;5074617;28;20209;-82
2022/10/12 12:50:05;;;;;;;6.95;2.10;;;;;;;;;;5013162;28;20267;-82
2022/10/12 12:52:44;;;;;;;6.72;2.05;;;;;;;;;;5013513;28;20698;-82
2022/10/12 12:55:41;;;;;;;7.22;2.13;;;;;;;;;;5012484;28;20243;-83
2022/10/12 12:58:31;;;;;;;5.80;2.13;;;;;;;;;;5051834;28;20302;-82
2022/10/12 13:01:18;;;;;;;5.15;2.00;;;;;;;;;;5074947;28;20221;-82
2022/10/12 13:04:06;;;;;;;6.13;2.10;;;;;;;;;;5074386;28;20206;-82
2022/10/12 13:06:50;;;;;;;5.97;2.28;;;;;;;;;;5072965;28;20190;-82
2022/10/12 13:09:45;;;;;;;4.75;1.98;;;;;;;;;;5074568;28;20222;-82
2022/10/12 13:12:32;;;;;;;6.50;2.00;;;;;;;;;;5073989;28;20270;-82
2022/10/12 13:15:22;;;;;;;5.78;1.90;;;;;;;;;;5075637;28;20640;-82
2022/10/12 13:18:07;;;;;;;6.03;2.13;;;;;;;;;;5073337;28;20202;-81
2022/10/12 13:21:04;;;;;;;4.13;2.03;;;;;;;;;;5073881;28;20226;-82
2022/10/12 13:23:37;;;;;;;4.70;2.08;;;;;;;;;;5073315;28;20175;-82
2022/10/12 13:26:13;;;;;;;5.75;2.00;;;;;;;;;;5073412;28;20202;-82
2022/10/12 13:28:45;;;;;;;3.90;2.00;;;;;;;;;;5075564;28;20696;-83
2022/10/12 13:31:17;;;;;;;4.93;2.13;;;;;;;;;;5079826;28;20202;-82
2022/10/12 13:33:57;;;;;;;6.10;2.00;;;;;;;;;;5075487;28;20192;-82
2022/10/12 13:36:50;;;;;;;6.45;2.58;;;;;;;;;;5079735;28;20202;-81
2022/10/12 13:39:30;;;;;;;5.18;1.77;;;;;;;;;;5077094;28;20252;-82
2022/10/12 13:42:08;;;;;;;5.32;1.95;;;;;;;;;;5080754;28;20206;-82
2022/10/12 13:44:40;;;;;;;3.08;1.63;;;;;;;;;;5083761;28;20658;-82
2022/10/12 13:47:27;;;;;;;7.45;1.77;;;;;;;;;;5082830;28;20202;-82
2022/10/12 13:50:00;;;;;;;3.80;1.80;;;;;;;;;;5081585;28;20218;-82
2022/10/12 13:52:31;;;;;;;4.63;1.80;;;;;;;;;;5081073;28;20194;-82
2022/10/12 13:55:02;;;;;;;3.85;1.60;;;;;;;;;;5079175;28;20183;-82
2022/10/12 13:57:36;;;;;;;5.47;1.92;;;;;;;;;;5077160;28;20214;-82
2022/10/12 14:00:10;;;;;;;4.43;1.70;;;;;;;;;;5077664;28;20226;-81
2022/10/12 14:02:44;;;;;;;4.70;1.95;;;;;;;;;;5079734;28;20182;-82
2022/10/12 14:05:22;;;;;;;3.08;1.85;;;;;;;;;;5080891;28;20205;-83
2022/10/12 14:07:52;;;;;;;4.18;1.95;;;;;;;;;;5080632;28;20183;-83
2022/10/12 14:10:22;;;;;;;4.15;1.80;;;;;;;;;;5079659;28;20233;-81
2022/10/12 14:12:52;;;;;;;5.78;2.05;;;;;;;;;;5078770;28;20237;-81
2022/10/12 14:15:21;;;;;;;4.63;1.98;;;;;;;;;;5077618;28;20225;-82
2022/10/12 14:17:51;;;;;;;3.80;1.65;;;;;;;;;;5078807;28;20198;-82
2022/10/12 14:20:28;;;;;;;4.25;1.90;;;;;;;;;;5077455;28;20567;-82
2022/10/12 14:22:58;;;;;;;4.28;1.83;;;;;;;;;;5078510;28;20244;-82
2022/10/12 14:25:29;;;;;;;4.78;1.88;;;;;;;;;;5079266;28;20249;-81
2022/10/12 14:27:59;;;;;;;2.90;1.73;;;;;;;;;;5079771;28;20217;-82
2022/10/12 14:30:29;;;;;;;5.97;2.00;;;;;;;;;;5078327;28;20218;-82
2022/10/12 14:33:10;;;;;;;6.73;1.77;;;;;;;;;;5091194;28;20220;-79
2022/10/12 14:35:45;;;;;;;5.97;1.80;;;;;;;;;;5080318;28;20663;-79
2022/10/12 14:38:41;;;;;;;3.83;1.70;;;;;;;;;;5090840;28;20250;-78
2022/10/12 14:41:29;;;;;;;4.53;1.83;;;;;;;;;;5049748;28;20650;-81
2022/10/12 14:44:07;;;;;;;5.00;1.90;;;;;;;;;;5098836;28;20210;-79
2022/10/12 14:46:42;;;;;;;5.05;1.70;;;;;;;;;;5088998;28;20201;-80
2022/10/12 14:49:17;;;;;;;5.38;1.88;;;;;;;;;;5080432;28;20744;-77
2022/10/12 14:51:58;;;;;;;6.25;2.00;;;;;;;;;;5076681;28;20205;-78
2022/10/12 14:54:41;;;;;;;6.13;2.10;;;;;;;;;;5074866;28;20207;-78
2022/10/12 14:57:17;;;;;;;5.40;2.00;;;;;;;;;;5076564;28;20647;-78
2022/10/12 14:59:46;;;;;;;6.47;1.92;;;;;;;;;;5076294;28;20666;-78
2022/10/12 15:02:18;;;;;;;4.77;1.93;;;;;;;;;;5075407;28;20305;-77
2022/10/12 15:04:47;;;;;;;7.37;1.93;;;;;;;;;;5076143;28;20222;-78
2022/10/12 15:07:19;;;;;;;5.17;1.80;;;;;;;;;;5076056;28;20332;-78
2022/10/12 15:09:49;;;;;;;5.00;2.00;;;;;;;;;;5079033;28;20276;-78